sensor_id;sensor_type;location;lat;lon;timestamp;temperature;humidity
43995;DHT22;51687;52.160;5.298;2022-08-19T00:02:02;25.50;55.80
43995;DHT22;51687;52.160;5.298;2022-08-19T00:04:32;25.50;56.00
43995;DHT22;51687;52.160;5.298;2022-08-19T00:07:00;25.50;56.00
43995;DHT22;51687;52.160;5.298;2022-08-19T00:09:27;25.50;55.80
43995;DHT22;51687;52.160;5.298;2022-08-19T00:11:54;25.50;55.70
43995;DHT22;51687;52.160;5.298;2022-08-19T00:14:24;25.50;55.80
43995;DHT22;51687;52.160;5.298;2022-08-19T00:16:52;25.50;55.60
43995;DHT22;51687;52.160;5.298;2022-08-19T00:19:22;25.50;55.40
43995;DHT22;51687;52.160;5.298;2022-08-19T00:21:50;25.50;55.50
43995;DHT22;51687;52.160;5.298;2022-08-19T00:24:18;25.50;55.40
43995;DHT22;51687;52.160;5.298;2022-08-19T00:26:45;25.50;55.40
43995;DHT22;51687;52.160;5.298;2022-08-19T00:29:15;25.50;55.50
43995;DHT22;51687;52.160;5.298;2022-08-19T00:31:43;25.50;55.20
43995;DHT22;51687;52.160;5.298;2022-08-19T00:34:11;25.50;55.20
43995;DHT22;51687;52.160;5.298;2022-08-19T00:36:39;25.50;55.50
43995;DHT22;51687;52.160;5.298;2022-08-19T00:39:07;25.50;54.90
43995;DHT22;51687;52.160;5.298;2022-08-19T00:41:34;25.50;55.10
43995;DHT22;51687;52.160;5.298;2022-08-19T00:46:38;25.50;55.20
43995;DHT22;51687;52.160;5.298;2022-08-19T00:49:22;25.50;55.20
43995;DHT22;51687;52.160;5.298;2022-08-19T00:51:55;25.50;56.20
43995;DHT22;51687;52.160;5.298;2022-08-19T00:54:22;25.50;55.00
43995;DHT22;51687;52.160;5.298;2022-08-19T00:56:57;25.50;54.80
43995;DHT22;51687;52.160;5.298;2022-08-19T00:59:25;25.50;54.70
43995;DHT22;51687;52.160;5.298;2022-08-19T01:02:12;25.50;54.60
43995;DHT22;51687;52.160;5.298;2022-08-19T01:04:39;25.40;54.50
43995;DHT22;51687;52.160;5.298;2022-08-19T01:07:07;25.50;54.30
43995;DHT22;51687;52.160;5.298;2022-08-19T01:09:40;25.50;54.60
43995;DHT22;51687;52.160;5.298;2022-08-19T01:12:08;25.40;54.30
43995;DHT22;51687;52.160;5.298;2022-08-19T01:14:37;25.50;54.30
43995;DHT22;51687;52.160;5.298;2022-08-19T01:17:07;25.40;54.70
43995;DHT22;51687;52.160;5.298;2022-08-19T01:19:37;25.40;54.20
43995;DHT22;51687;52.160;5.298;2022-08-19T01:22:31;25.40;54.40
43995;DHT22;51687;52.160;5.298;2022-08-19T01:25:01;25.40;56.30
43995;DHT22;51687;52.160;5.298;2022-08-19T01:27:40;25.40;54.50
43995;DHT22;51687;52.160;5.298;2022-08-19T01:30:13;25.40;54.50
43995;DHT22;51687;52.160;5.298;2022-08-19T01:32:40;25.40;54.20
43995;DHT22;51687;52.160;5.298;2022-08-19T01:35:07;25.40;54.40
43995;DHT22;51687;52.160;5.298;2022-08-19T01:37:49;25.40;54.20
43995;DHT22;51687;52.160;5.298;2022-08-19T01:40:19;25.40;54.60
43995;DHT22;51687;52.160;5.298;2022-08-19T01:42:48;25.30;54.00
43995;DHT22;51687;52.160;5.298;2022-08-19T01:45:16;25.40;53.90
43995;DHT22;51687;52.160;5.298;2022-08-19T01:47:44;25.40;54.10
43995;DHT22;51687;52.160;5.298;2022-08-19T01:50:26;25.30;53.90
43995;DHT22;51687;52.160;5.298;2022-08-19T01:52:54;25.30;54.10
43995;DHT22;51687;52.160;5.298;2022-08-19T01:55:32;25.30;54.30
43995;DHT22;51687;52.160;5.298;2022-08-19T01:58:02;25.30;54.30
43995;DHT22;51687;52.160;5.298;2022-08-19T02:00:31;25.30;53.90
43995;DHT22;51687;52.160;5.298;2022-08-19T02:02:58;25.30;53.90
43995;DHT22;51687;52.160;5.298;2022-08-19T02:05:25;25.30;54.10
43995;DHT22;51687;52.160;5.298;2022-08-19T02:07:52;25.30;53.90
43995;DHT22;51687;52.160;5.298;2022-08-19T02:10:21;25.30;53.70
43995;DHT22;51687;52.160;5.298;2022-08-19T02:12:49;25.30;53.70
43995;DHT22;51687;52.160;5.298;2022-08-19T02:15:17;25.30;53.50
43995;DHT22;51687;52.160;5.298;2022-08-19T02:17:46;25.30;53.30
43995;DHT22;51687;52.160;5.298;2022-08-19T02:20:13;25.30;53.30
43995;DHT22;51687;52.160;5.298;2022-08-19T02:22:40;25.30;53.20
43995;DHT22;51687;52.160;5.298;2022-08-19T02:25:13;25.30;53.10
43995;DHT22;51687;52.160;5.298;2022-08-19T02:27:41;25.30;53.00
43995;DHT22;51687;52.160;5.298;2022-08-19T02:30:12;25.30;53.20
43995;DHT22;51687;52.160;5.298;2022-08-19T02:32:40;25.20;53.70
43995;DHT22;51687;52.160;5.298;2022-08-19T02:35:11;25.20;53.30
43995;DHT22;51687;52.160;5.298;2022-08-19T02:37:40;25.20;53.00
43995;DHT22;51687;52.160;5.298;2022-08-19T02:40:26;25.20;53.30
43995;DHT22;51687;52.160;5.298;2022-08-19T02:42:53;25.20;53.10
43995;DHT22;51687;52.160;5.298;2022-08-19T02:45:20;25.20;53.30
43995;DHT22;51687;52.160;5.298;2022-08-19T02:47:47;25.20;53.50
43995;DHT22;51687;52.160;5.298;2022-08-19T02:50:14;25.20;53.20
43995;DHT22;51687;52.160;5.298;2022-08-19T02:52:41;25.20;53.40
43995;DHT22;51687;52.160;5.298;2022-08-19T02:55:09;25.20;53.20
43995;DHT22;51687;52.160;5.298;2022-08-19T02:57:35;25.20;53.00
43995;DHT22;51687;52.160;5.298;2022-08-19T03:00:05;25.20;53.50
43995;DHT22;51687;52.160;5.298;2022-08-19T03:02:33;25.20;53.10
43995;DHT22;51687;52.160;5.298;2022-08-19T03:04:59;25.20;53.30
43995;DHT22;51687;52.160;5.298;2022-08-19T03:07:26;25.20;53.40
43995;DHT22;51687;52.160;5.298;2022-08-19T03:09:53;25.10;53.10
43995;DHT22;51687;52.160;5.298;2022-08-19T03:12:19;25.20;53.40
43995;DHT22;51687;52.160;5.298;2022-08-19T03:14:46;25.20;53.40
43995;DHT22;51687;52.160;5.298;2022-08-19T03:17:17;25.20;53.40
43995;DHT22;51687;52.160;5.298;2022-08-19T03:19:44;25.10;53.50
43995;DHT22;51687;52.160;5.298;2022-08-19T03:22:11;25.10;53.30
43995;DHT22;51687;52.160;5.298;2022-08-19T03:24:38;25.20;53.50
43995;DHT22;51687;52.160;5.298;2022-08-19T03:27:05;25.10;53.40
43995;DHT22;51687;52.160;5.298;2022-08-19T03:29:32;25.10;53.60
43995;DHT22;51687;52.160;5.298;2022-08-19T03:32:08;25.10;53.50
43995;DHT22;51687;52.160;5.298;2022-08-19T03:34:55;25.10;53.40
43995;DHT22;51687;52.160;5.298;2022-08-19T03:37:22;25.10;53.90
43995;DHT22;51687;52.160;5.298;2022-08-19T03:39:51;25.10;53.40
43995;DHT22;51687;52.160;5.298;2022-08-19T03:42:18;25.10;53.30
43995;DHT22;51687;52.160;5.298;2022-08-19T03:45:04;25.10;53.40
43995;DHT22;51687;52.160;5.298;2022-08-19T03:47:31;25.10;53.30
43995;DHT22;51687;52.160;5.298;2022-08-19T03:49:58;25.00;53.50
43995;DHT22;51687;52.160;5.298;2022-08-19T03:52:25;25.10;53.10
43995;DHT22;51687;52.160;5.298;2022-08-19T03:54:52;25.10;53.30
43995;DHT22;51687;52.160;5.298;2022-08-19T03:57:19;25.00;53.00
43995;DHT22;51687;52.160;5.298;2022-08-19T03:59:45;25.00;53.30
43995;DHT22;51687;52.160;5.298;2022-08-19T04:02:13;25.00;53.10
43995;DHT22;51687;52.160;5.298;2022-08-19T04:04:42;25.00;53.00
43995;DHT22;51687;52.160;5.298;2022-08-19T04:07:11;25.00;52.90
43995;DHT22;51687;52.160;5.298;2022-08-19T04:09:39;25.00;53.00
43995;DHT22;51687;52.160;5.298;2022-08-19T04:12:06;25.00;52.90
43995;DHT22;51687;52.160;5.298;2022-08-19T04:14:33;25.00;53.10
43995;DHT22;51687;52.160;5.298;2022-08-19T04:17:02;25.00;52.90
43995;DHT22;51687;52.160;5.298;2022-08-19T04:19:34;25.00;53.00
43995;DHT22;51687;52.160;5.298;2022-08-19T04:22:02;25.00;52.90
43995;DHT22;51687;52.160;5.298;2022-08-19T04:24:29;25.00;52.90
43995;DHT22;51687;52.160;5.298;2022-08-19T04:26:56;25.00;53.40
43995;DHT22;51687;52.160;5.298;2022-08-19T04:29:24;25.00;52.90
43995;DHT22;51687;52.160;5.298;2022-08-19T04:31:55;25.00;52.80
43995;DHT22;51687;52.160;5.298;2022-08-19T04:34:25;25.00;52.40
43995;DHT22;51687;52.160;5.298;2022-08-19T04:36:53;25.00;52.30
43995;DHT22;51687;52.160;5.298;2022-08-19T04:39:21;25.00;52.40
43995;DHT22;51687;52.160;5.298;2022-08-19T04:41:48;24.90;58.80
43995;DHT22;51687;52.160;5.298;2022-08-19T04:44:35;24.90;53.40
43995;DHT22;51687;52.160;5.298;2022-08-19T04:47:11;24.90;52.60
43995;DHT22;51687;52.160;5.298;2022-08-19T04:49:39;24.90;53.00
43995;DHT22;51687;52.160;5.298;2022-08-19T04:52:06;24.90;52.70
43995;DHT22;51687;52.160;5.298;2022-08-19T04:54:35;24.90;52.70
43995;DHT22;51687;52.160;5.298;2022-08-19T04:57:03;24.90;52.60
43995;DHT22;51687;52.160;5.298;2022-08-19T04:59:33;24.90;52.50
43995;DHT22;51687;52.160;5.298;2022-08-19T05:02:00;24.90;52.50
43995;DHT22;51687;52.160;5.298;2022-08-19T05:04:27;24.90;52.60
43995;DHT22;51687;52.160;5.298;2022-08-19T05:06:59;24.90;52.50
43995;DHT22;51687;52.160;5.298;2022-08-19T05:09:28;24.90;52.80
43995;DHT22;51687;52.160;5.298;2022-08-19T05:12:15;24.90;52.70
43995;DHT22;51687;52.160;5.298;2022-08-19T05:14:42;24.80;52.80
43995;DHT22;51687;52.160;5.298;2022-08-19T05:17:11;24.80;52.70
43995;DHT22;51687;52.160;5.298;2022-08-19T05:19:58;24.80;52.80
43995;DHT22;51687;52.160;5.298;2022-08-19T05:22:45;24.80;53.00
43995;DHT22;51687;52.160;5.298;2022-08-19T05:25:16;24.80;53.20
43995;DHT22;51687;52.160;5.298;2022-08-19T05:27:45;24.80;53.10
43995;DHT22;51687;52.160;5.298;2022-08-19T05:30:12;24.80;53.40
43995;DHT22;51687;52.160;5.298;2022-08-19T05:32:39;24.80;53.80
43995;DHT22;51687;52.160;5.298;2022-08-19T05:35:07;24.80;53.90
43995;DHT22;51687;52.160;5.298;2022-08-19T05:37:33;24.80;53.80
43995;DHT22;51687;52.160;5.298;2022-08-19T05:40:00;24.80;53.90
43995;DHT22;51687;52.160;5.298;2022-08-19T05:42:28;24.80;53.90
43995;DHT22;51687;52.160;5.298;2022-08-19T05:44:55;24.80;54.20
43995;DHT22;51687;52.160;5.298;2022-08-19T05:47:23;24.80;54.30
43995;DHT22;51687;52.160;5.298;2022-08-19T05:49:51;24.80;58.30
43995;DHT22;51687;52.160;5.298;2022-08-19T05:52:19;24.80;55.20
43995;DHT22;51687;52.160;5.298;2022-08-19T05:54:52;24.80;55.00
43995;DHT22;51687;52.160;5.298;2022-08-19T05:57:22;24.80;55.70
43995;DHT22;51687;52.160;5.298;2022-08-19T05:59:49;24.80;55.70
43995;DHT22;51687;52.160;5.298;2022-08-19T06:02:25;24.80;55.90
43995;DHT22;51687;52.160;5.298;2022-08-19T06:04:52;24.80;56.70
43995;DHT22;51687;52.160;5.298;2022-08-19T06:07:18;24.80;58.50
43995;DHT22;51687;52.160;5.298;2022-08-19T06:09:46;24.80;57.70
43995;DHT22;51687;52.160;5.298;2022-08-19T06:12:27;24.80;58.10
43995;DHT22;51687;52.160;5.298;2022-08-19T06:14:57;24.80;58.50
43995;DHT22;51687;52.160;5.298;2022-08-19T06:17:28;24.70;58.80
43995;DHT22;51687;52.160;5.298;2022-08-19T06:19:57;24.80;59.10
43995;DHT22;51687;52.160;5.298;2022-08-19T06:22:25;24.70;59.40
43995;DHT22;51687;52.160;5.298;2022-08-19T06:24:55;24.70;59.50
43995;DHT22;51687;52.160;5.298;2022-08-19T06:27:22;24.70;59.90
43995;DHT22;51687;52.160;5.298;2022-08-19T06:29:49;24.70;60.20
43995;DHT22;51687;52.160;5.298;2022-08-19T06:32:17;24.70;60.50
43995;DHT22;51687;52.160;5.298;2022-08-19T06:34:45;24.70;60.60
43995;DHT22;51687;52.160;5.298;2022-08-19T06:37:12;24.70;60.70
43995;DHT22;51687;52.160;5.298;2022-08-19T06:39:40;24.70;61.00
43995;DHT22;51687;52.160;5.298;2022-08-19T06:42:08;24.70;61.10
43995;DHT22;51687;52.160;5.298;2022-08-19T06:44:40;24.70;61.40
43995;DHT22;51687;52.160;5.298;2022-08-19T06:47:11;24.70;61.60
43995;DHT22;51687;52.160;5.298;2022-08-19T06:49:41;24.70;61.90
43995;DHT22;51687;52.160;5.298;2022-08-19T06:52:10;24.70;61.90
43995;DHT22;51687;52.160;5.298;2022-08-19T06:54:40;24.60;62.00
43995;DHT22;51687;52.160;5.298;2022-08-19T06:57:26;24.60;62.30
43995;DHT22;51687;52.160;5.298;2022-08-19T06:59:53;24.60;62.50
43995;DHT22;51687;52.160;5.298;2022-08-19T07:02:21;24.50;62.80
43995;DHT22;51687;52.160;5.298;2022-08-19T07:04:53;24.50;61.40
43995;DHT22;51687;52.160;5.298;2022-08-19T07:07:20;24.50;62.80
43995;DHT22;51687;52.160;5.298;2022-08-19T07:09:49;24.50;62.80
43995;DHT22;51687;52.160;5.298;2022-08-19T07:12:28;24.50;61.60
43995;DHT22;51687;52.160;5.298;2022-08-19T07:14:57;24.50;62.70
43995;DHT22;51687;52.160;5.298;2022-08-19T07:17:25;24.40;62.90
43995;DHT22;51687;52.160;5.298;2022-08-19T07:19:52;24.40;63.10
43995;DHT22;51687;52.160;5.298;2022-08-19T07:22:20;24.40;62.90
43995;DHT22;51687;52.160;5.298;2022-08-19T07:24:53;24.40;63.10
43995;DHT22;51687;52.160;5.298;2022-08-19T07:27:20;24.40;63.20
43995;DHT22;51687;52.160;5.298;2022-08-19T07:29:53;24.40;63.20
43995;DHT22;51687;52.160;5.298;2022-08-19T07:32:21;24.40;63.30
43995;DHT22;51687;52.160;5.298;2022-08-19T07:34:49;24.40;63.30
43995;DHT22;51687;52.160;5.298;2022-08-19T07:37:16;24.40;64.10
43995;DHT22;51687;52.160;5.298;2022-08-19T07:39:43;24.30;63.50
43995;DHT22;51687;52.160;5.298;2022-08-19T07:42:11;24.30;64.00
43995;DHT22;51687;52.160;5.298;2022-08-19T07:44:39;24.30;63.90
43995;DHT22;51687;52.160;5.298;2022-08-19T07:47:10;24.30;63.90
43995;DHT22;51687;52.160;5.298;2022-08-19T07:49:58;24.30;63.70
43995;DHT22;51687;52.160;5.298;2022-08-19T07:52:25;24.20;63.70
43995;DHT22;51687;52.160;5.298;2022-08-19T07:54:51;24.30;63.80
43995;DHT22;51687;52.160;5.298;2022-08-19T07:57:19;24.20;63.80
43995;DHT22;51687;52.160;5.298;2022-08-19T07:59:46;24.20;63.80
43995;DHT22;51687;52.160;5.298;2022-08-19T08:02:13;24.20;63.90
43995;DHT22;51687;52.160;5.298;2022-08-19T08:04:39;24.20;64.10
43995;DHT22;51687;52.160;5.298;2022-08-19T08:07:25;24.20;64.30
43995;DHT22;51687;52.160;5.298;2022-08-19T08:10:12;24.20;64.00
43995;DHT22;51687;52.160;5.298;2022-08-19T08:12:47;24.20;63.90
43995;DHT22;51687;52.160;5.298;2022-08-19T08:15:34;24.20;64.10
43995;DHT22;51687;52.160;5.298;2022-08-19T08:18:09;24.20;64.50
43995;DHT22;51687;52.160;5.298;2022-08-19T08:20:36;24.20;64.10
43995;DHT22;51687;52.160;5.298;2022-08-19T08:23:02;24.20;64.50
43995;DHT22;51687;52.160;5.298;2022-08-19T08:25:48;24.20;63.60
43995;DHT22;51687;52.160;5.298;2022-08-19T08:28:16;24.20;64.20
43995;DHT22;51687;52.160;5.298;2022-08-19T08:30:44;24.20;63.90
43995;DHT22;51687;52.160;5.298;2022-08-19T08:33:14;24.20;62.80
43995;DHT22;51687;52.160;5.298;2022-08-19T08:35:41;24.20;63.40
43995;DHT22;51687;52.160;5.298;2022-08-19T08:38:08;24.20;63.50
43995;DHT22;51687;52.160;5.298;2022-08-19T08:43:31;24.20;63.10
43995;DHT22;51687;52.160;5.298;2022-08-19T08:46:12;24.30;63.30
43995;DHT22;51687;52.160;5.298;2022-08-19T08:49:31;24.20;62.60
43995;DHT22;51687;52.160;5.298;2022-08-19T08:52:06;24.20;62.80
43995;DHT22;51687;52.160;5.298;2022-08-19T08:54:43;24.20;63.70
43995;DHT22;51687;52.160;5.298;2022-08-19T08:57:27;24.20;63.60
43995;DHT22;51687;52.160;5.298;2022-08-19T09:00:10;24.20;63.30
43995;DHT22;51687;52.160;5.298;2022-08-19T09:02:41;24.20;63.10
43995;DHT22;51687;52.160;5.298;2022-08-19T09:05:10;24.20;63.70
43995;DHT22;51687;52.160;5.298;2022-08-19T09:08:07;24.20;63.90
43995;DHT22;51687;52.160;5.298;2022-08-19T09:10:44;24.20;63.80
43995;DHT22;51687;52.160;5.298;2022-08-19T09:16:20;24.20;63.70
43995;DHT22;51687;52.160;5.298;2022-08-19T09:18:58;24.20;63.70
43995;DHT22;51687;52.160;5.298;2022-08-19T09:21:28;24.20;64.80
43995;DHT22;51687;52.160;5.298;2022-08-19T09:23:58;24.20;63.70
43995;DHT22;51687;52.160;5.298;2022-08-19T09:26:25;24.20;64.10
43995;DHT22;51687;52.160;5.298;2022-08-19T09:29:13;24.20;63.90
43995;DHT22;51687;52.160;5.298;2022-08-19T09:31:39;24.20;63.20
43995;DHT22;51687;52.160;5.298;2022-08-19T09:34:06;24.20;63.20
43995;DHT22;51687;52.160;5.298;2022-08-19T09:36:47;24.20;64.00
43995;DHT22;51687;52.160;5.298;2022-08-19T09:39:21;24.20;63.20
43995;DHT22;51687;52.160;5.298;2022-08-19T09:41:47;24.20;62.90
43995;DHT22;51687;52.160;5.298;2022-08-19T09:44:17;24.30;62.70
43995;DHT22;51687;52.160;5.298;2022-08-19T09:46:44;24.30;62.80
43995;DHT22;51687;52.160;5.298;2022-08-19T09:49:14;24.30;62.50
43995;DHT22;51687;52.160;5.298;2022-08-19T09:51:44;24.30;62.80
43995;DHT22;51687;52.160;5.298;2022-08-19T09:54:17;24.30;62.70
43995;DHT22;51687;52.160;5.298;2022-08-19T09:56:50;24.30;63.40
43995;DHT22;51687;52.160;5.298;2022-08-19T09:59:19;24.30;61.80
43995;DHT22;51687;52.160;5.298;2022-08-19T10:01:46;24.30;62.00
43995;DHT22;51687;52.160;5.298;2022-08-19T10:04:13;24.30;62.50
43995;DHT22;51687;52.160;5.298;2022-08-19T10:06:49;24.30;62.20
43995;DHT22;51687;52.160;5.298;2022-08-19T10:09:19;24.30;63.20
43995;DHT22;51687;52.160;5.298;2022-08-19T10:12:03;24.30;63.10
43995;DHT22;51687;52.160;5.298;2022-08-19T10:14:32;24.30;62.90
43995;DHT22;51687;52.160;5.298;2022-08-19T10:17:02;24.30;63.10
43995;DHT22;51687;52.160;5.298;2022-08-19T10:19:45;24.40;63.40
43995;DHT22;51687;52.160;5.298;2022-08-19T10:22:23;24.40;64.00
43995;DHT22;51687;52.160;5.298;2022-08-19T10:24:52;24.40;64.10
43995;DHT22;51687;52.160;5.298;2022-08-19T10:27:19;24.40;64.10
43995;DHT22;51687;52.160;5.298;2022-08-19T10:29:46;24.40;64.30
43995;DHT22;51687;52.160;5.298;2022-08-19T10:32:13;24.40;64.40
43995;DHT22;51687;52.160;5.298;2022-08-19T10:34:42;24.40;64.10
43995;DHT22;51687;52.160;5.298;2022-08-19T10:37:16;24.40;63.80
43995;DHT22;51687;52.160;5.298;2022-08-19T10:39:54;24.40;64.60
43995;DHT22;51687;52.160;5.298;2022-08-19T10:42:21;24.40;64.30
43995;DHT22;51687;52.160;5.298;2022-08-19T10:44:48;24.40;64.20
43995;DHT22;51687;52.160;5.298;2022-08-19T10:47:18;24.50;64.50
43995;DHT22;51687;52.160;5.298;2022-08-19T10:49:56;24.50;64.70
43995;DHT22;51687;52.160;5.298;2022-08-19T10:52:44;24.50;64.30
43995;DHT22;51687;52.160;5.298;2022-08-19T10:55:18;24.50;64.20
43995;DHT22;51687;52.160;5.298;2022-08-19T10:58:12;24.40;65.00
43995;DHT22;51687;52.160;5.298;2022-08-19T11:00:40;24.50;64.70
43995;DHT22;51687;52.160;5.298;2022-08-19T11:03:07;24.50;65.00
43995;DHT22;51687;52.160;5.298;2022-08-19T11:05:35;24.50;64.90
43995;DHT22;51687;52.160;5.298;2022-08-19T11:08:06;24.50;64.50
43995;DHT22;51687;52.160;5.298;2022-08-19T11:10:49;24.50;65.00
43995;DHT22;51687;52.160;5.298;2022-08-19T11:13:16;24.60;65.60
43995;DHT22;51687;52.160;5.298;2022-08-19T11:15:43;24.60;64.70
43995;DHT22;51687;52.160;5.298;2022-08-19T11:18:10;24.60;65.40
43995;DHT22;51687;52.160;5.298;2022-08-19T11:20:39;24.60;64.50
43995;DHT22;51687;52.160;5.298;2022-08-19T11:23:05;24.70;64.40
43995;DHT22;51687;52.160;5.298;2022-08-19T11:25:32;24.70;65.40
43995;DHT22;51687;52.160;5.298;2022-08-19T11:28:00;24.70;65.80
43995;DHT22;51687;52.160;5.298;2022-08-19T11:30:27;24.70;64.80
43995;DHT22;51687;52.160;5.298;2022-08-19T11:32:54;24.70;65.00
43995;DHT22;51687;52.160;5.298;2022-08-19T11:35:21;24.80;65.60
43995;DHT22;51687;52.160;5.298;2022-08-19T11:37:49;24.80;65.20
43995;DHT22;51687;52.160;5.298;2022-08-19T11:40:16;24.80;65.30
43995;DHT22;51687;52.160;5.298;2022-08-19T11:42:44;24.90;65.10
43995;DHT22;51687;52.160;5.298;2022-08-19T11:45:26;24.90;65.60
43995;DHT22;51687;52.160;5.298;2022-08-19T11:47:53;24.90;64.50
43995;DHT22;51687;52.160;5.298;2022-08-19T11:50:24;24.90;65.20
43995;DHT22;51687;52.160;5.298;2022-08-19T11:52:56;24.90;64.20
43995;DHT22;51687;52.160;5.298;2022-08-19T11:55:23;24.90;64.70
43995;DHT22;51687;52.160;5.298;2022-08-19T11:57:50;25.00;64.50
43995;DHT22;51687;52.160;5.298;2022-08-19T12:00:17;25.00;65.90
43995;DHT22;51687;52.160;5.298;2022-08-19T12:02:44;25.00;65.00
43995;DHT22;51687;52.160;5.298;2022-08-19T12:05:10;25.00;65.70
43995;DHT22;51687;52.160;5.298;2022-08-19T12:07:39;25.00;65.30
43995;DHT22;51687;52.160;5.298;2022-08-19T12:10:07;25.10;65.60
43995;DHT22;51687;52.160;5.298;2022-08-19T12:12:36;25.00;66.20
43995;DHT22;51687;52.160;5.298;2022-08-19T12:15:07;25.10;66.70
43995;DHT22;51687;52.160;5.298;2022-08-19T12:17:34;25.10;68.70
43995;DHT22;51687;52.160;5.298;2022-08-19T12:20:01;25.10;69.40
43995;DHT22;51687;52.160;5.298;2022-08-19T12:22:27;25.10;70.00
43995;DHT22;51687;52.160;5.298;2022-08-19T12:24:54;25.00;70.00
43995;DHT22;51687;52.160;5.298;2022-08-19T12:27:21;25.00;69.40
43995;DHT22;51687;52.160;5.298;2022-08-19T12:30:08;25.00;69.50
43995;DHT22;51687;52.160;5.298;2022-08-19T12:32:36;25.00;70.80
43995;DHT22;51687;52.160;5.298;2022-08-19T12:35:03;25.00;70.50
43995;DHT22;51687;52.160;5.298;2022-08-19T12:37:30;25.00;70.60
43995;DHT22;51687;52.160;5.298;2022-08-19T12:39:58;25.00;71.30
43995;DHT22;51687;52.160;5.298;2022-08-19T12:42:26;25.00;72.00
43995;DHT22;51687;52.160;5.298;2022-08-19T12:44:53;25.00;72.10
43995;DHT22;51687;52.160;5.298;2022-08-19T12:47:20;25.10;72.20
43995;DHT22;51687;52.160;5.298;2022-08-19T12:49:48;25.10;71.30
43995;DHT22;51687;52.160;5.298;2022-08-19T12:52:23;25.10;72.30
43995;DHT22;51687;52.160;5.298;2022-08-19T12:54:51;25.10;73.20
43995;DHT22;51687;52.160;5.298;2022-08-19T12:57:25;25.10;72.90
43995;DHT22;51687;52.160;5.298;2022-08-19T13:02:35;25.10;74.30
43995;DHT22;51687;52.160;5.298;2022-08-19T13:05:05;25.10;74.20
43995;DHT22;51687;52.160;5.298;2022-08-19T13:07:35;25.10;74.00
43995;DHT22;51687;52.160;5.298;2022-08-19T13:10:03;25.10;74.00
43995;DHT22;51687;52.160;5.298;2022-08-19T13:12:32;25.10;74.00
43995;DHT22;51687;52.160;5.298;2022-08-19T13:14:59;25.10;74.10
43995;DHT22;51687;52.160;5.298;2022-08-19T13:17:29;25.10;74.40
43995;DHT22;51687;52.160;5.298;2022-08-19T13:20:02;25.10;74.80
43995;DHT22;51687;52.160;5.298;2022-08-19T13:22:32;25.20;75.20
43995;DHT22;51687;52.160;5.298;2022-08-19T13:24:59;25.10;75.00
43995;DHT22;51687;52.160;5.298;2022-08-19T13:27:26;25.10;75.30
43995;DHT22;51687;52.160;5.298;2022-08-19T13:29:53;25.20;75.70
43995;DHT22;51687;52.160;5.298;2022-08-19T13:32:38;25.10;74.50
43995;DHT22;51687;52.160;5.298;2022-08-19T13:35:24;25.10;75.00
43995;DHT22;51687;52.160;5.298;2022-08-19T13:37:50;25.10;75.00
43995;DHT22;51687;52.160;5.298;2022-08-19T13:40:20;25.10;75.20
43995;DHT22;51687;52.160;5.298;2022-08-19T13:42:52;25.10;74.20
43995;DHT22;51687;52.160;5.298;2022-08-19T13:45:22;25.10;74.60
43995;DHT22;51687;52.160;5.298;2022-08-19T13:47:53;25.10;75.40
43995;DHT22;51687;52.160;5.298;2022-08-19T13:50:29;25.10;74.30
43995;DHT22;51687;52.160;5.298;2022-08-19T13:52:57;25.10;73.70
43995;DHT22;51687;52.160;5.298;2022-08-19T13:55:25;25.10;73.80
43995;DHT22;51687;52.160;5.298;2022-08-19T13:57:53;25.10;73.90
43995;DHT22;51687;52.160;5.298;2022-08-19T14:00:25;25.10;74.10
43995;DHT22;51687;52.160;5.298;2022-08-19T14:02:54;25.10;74.00
43995;DHT22;51687;52.160;5.298;2022-08-19T14:05:23;25.10;74.70
43995;DHT22;51687;52.160;5.298;2022-08-19T14:07:50;25.10;75.20
43995;DHT22;51687;52.160;5.298;2022-08-19T14:10:17;25.10;75.20
43995;DHT22;51687;52.160;5.298;2022-08-19T14:12:45;25.10;76.40
43995;DHT22;51687;52.160;5.298;2022-08-19T14:15:12;25.10;75.30
43995;DHT22;51687;52.160;5.298;2022-08-19T14:17:41;25.10;75.40
43995;DHT22;51687;52.160;5.298;2022-08-19T14:20:10;25.10;75.80
43995;DHT22;51687;52.160;5.298;2022-08-19T14:22:45;25.10;76.30
43995;DHT22;51687;52.160;5.298;2022-08-19T14:25:18;25.20;76.00
43995;DHT22;51687;52.160;5.298;2022-08-19T14:27:46;25.10;76.60
43995;DHT22;51687;52.160;5.298;2022-08-19T14:30:20;25.10;76.20
43995;DHT22;51687;52.160;5.298;2022-08-19T14:32:48;25.20;76.80
43995;DHT22;51687;52.160;5.298;2022-08-19T14:35:16;25.20;75.30
43995;DHT22;51687;52.160;5.298;2022-08-19T14:37:44;25.10;75.10
43995;DHT22;51687;52.160;5.298;2022-08-19T14:40:17;25.10;74.90
43995;DHT22;51687;52.160;5.298;2022-08-19T14:42:44;25.10;74.80
43995;DHT22;51687;52.160;5.298;2022-08-19T14:45:11;25.10;75.20
43995;DHT22;51687;52.160;5.298;2022-08-19T14:47:38;25.10;74.20
43995;DHT22;51687;52.160;5.298;2022-08-19T14:50:12;25.00;73.90
43995;DHT22;51687;52.160;5.298;2022-08-19T14:52:45;25.10;74.00
43995;DHT22;51687;52.160;5.298;2022-08-19T14:55:16;25.10;75.30
43995;DHT22;51687;52.160;5.298;2022-08-19T14:57:45;25.00;75.20
43995;DHT22;51687;52.160;5.298;2022-08-19T15:00:14;25.00;74.30
43995;DHT22;51687;52.160;5.298;2022-08-19T15:02:41;25.00;74.70
43995;DHT22;51687;52.160;5.298;2022-08-19T15:05:10;25.00;75.50
43995;DHT22;51687;52.160;5.298;2022-08-19T15:07:37;25.10;75.70
43995;DHT22;51687;52.160;5.298;2022-08-19T15:10:05;25.00;75.90
43995;DHT22;51687;52.160;5.298;2022-08-19T15:12:36;25.10;75.90
43995;DHT22;51687;52.160;5.298;2022-08-19T15:15:09;25.00;75.60
43995;DHT22;51687;52.160;5.298;2022-08-19T15:17:40;25.00;76.10
43995;DHT22;51687;52.160;5.298;2022-08-19T15:20:20;25.00;75.50
43995;DHT22;51687;52.160;5.298;2022-08-19T15:22:50;25.00;76.00
43995;DHT22;51687;52.160;5.298;2022-08-19T15:25:18;25.00;74.10
43995;DHT22;51687;52.160;5.298;2022-08-19T15:27:46;25.10;74.30
43995;DHT22;51687;52.160;5.298;2022-08-19T15:30:20;25.10;74.40
43995;DHT22;51687;52.160;5.298;2022-08-19T15:32:50;25.10;74.90
43995;DHT22;51687;52.160;5.298;2022-08-19T15:35:19;25.10;74.80
43995;DHT22;51687;52.160;5.298;2022-08-19T15:37:50;25.00;74.20
43995;DHT22;51687;52.160;5.298;2022-08-19T15:40:19;25.10;74.60
43995;DHT22;51687;52.160;5.298;2022-08-19T15:42:47;25.00;74.50
43995;DHT22;51687;52.160;5.298;2022-08-19T15:45:17;25.00;73.70
43995;DHT22;51687;52.160;5.298;2022-08-19T15:47:47;25.00;74.00
43995;DHT22;51687;52.160;5.298;2022-08-19T15:50:17;25.00;73.40
43995;DHT22;51687;52.160;5.298;2022-08-19T15:52:47;25.00;73.80
43995;DHT22;51687;52.160;5.298;2022-08-19T15:55:21;25.00;74.00
43995;DHT22;51687;52.160;5.298;2022-08-19T15:58:06;25.00;74.30
43995;DHT22;51687;52.160;5.298;2022-08-19T16:01:03;25.00;74.10
43995;DHT22;51687;52.160;5.298;2022-08-19T16:03:50;25.00;73.20